createdAt,value
2019-03-31T00:03:31.769Z,86.40
2019-03-31T00:07:39.125Z,87.10
2019-03-31T00:11:46.512Z,87.20
2019-03-31T00:15:54.624Z,87.20
2019-03-31T00:20:02.161Z,87.50
2019-03-31T00:24:08.445Z,88.50
2019-03-31T00:28:14.179Z,88.70
2019-03-31T00:32:21.018Z,89.10
2019-03-31T00:36:27.522Z,90.00
2019-03-31T00:40:38.530Z,90.00
2019-03-31T00:44:46.687Z,90.20
2019-03-31T00:48:55.802Z,90.20
2019-03-31T00:53:03.433Z,90.30
2019-03-31T00:57:11.376Z,90.30
2019-03-31T01:01:48.128Z,91.00
2019-03-31T01:05:54.715Z,91.10
2019-03-31T01:10:01.592Z,91.10
2019-03-31T01:14:07.274Z,90.80
2019-03-31T01:18:16.214Z,91.30
2019-03-31T01:22:24.454Z,91.50
2019-03-31T01:26:30.742Z,91.90
2019-03-31T01:30:38.679Z,91.60
2019-03-31T01:34:45.604Z,91.90
2019-03-31T01:38:51.949Z,92.20
2019-03-31T01:42:58.317Z,92.60
2019-03-31T01:47:06.283Z,92.70
2019-03-31T01:51:14.991Z,92.60
2019-03-31T01:55:22.185Z,92.60
2019-03-31T01:59:29.150Z,93.00
2019-03-31T02:03:36.728Z,93.50
2019-03-31T02:07:43.747Z,94.00
2019-03-31T02:11:50.357Z,93.90
2019-03-31T02:15:57.552Z,93.90
2019-03-31T02:20:03.507Z,93.90
2019-03-31T02:24:09.178Z,94.10
2019-03-31T02:28:15.705Z,94.30
2019-03-31T02:32:24.471Z,94.30
2019-03-31T02:36:30.824Z,94.70
2019-03-31T02:40:37.777Z,94.80
2019-03-31T02:45:12.599Z,95.10
2019-03-31T02:49:18.799Z,95.10
2019-03-31T02:53:25.514Z,95.40
2019-03-31T02:57:33.186Z,95.30
2019-03-31T03:01:41.758Z,95.10
2019-03-31T03:05:50.671Z,95.20
2019-03-31T03:09:58.747Z,95.30
2019-03-31T03:14:08.604Z,95.60
2019-03-31T03:18:15.380Z,96.00
2019-03-31T03:22:21.534Z,95.90
2019-03-31T03:26:27.999Z,96.30
2019-03-31T03:30:34.038Z,96.50
2019-03-31T03:34:40.847Z,96.50
2019-03-31T03:38:47.685Z,96.50
2019-03-31T03:42:54.613Z,96.60
2019-03-31T03:47:02.631Z,96.40
2019-03-31T03:51:10.766Z,96.70
2019-03-31T03:55:17.443Z,96.70
2019-03-31T03:59:23.976Z,97.50
2019-03-31T04:03:32.043Z,97.30
2019-03-31T04:07:39.551Z,97.70
2019-03-31T04:11:46.799Z,97.60
2019-03-31T04:15:53.560Z,97.70
2019-03-31T04:20:03.379Z,98.10
2019-03-31T04:24:13.233Z,98.10
2019-03-31T04:28:22.075Z,98.10
2019-03-31T04:32:39.003Z,98.30
2019-03-31T04:36:46.099Z,98.40
2019-03-31T04:40:51.780Z,98.10
2019-03-31T04:44:58.502Z,98.40
2019-03-31T04:49:08.038Z,98.90
2019-03-31T04:53:15.006Z,98.90
2019-03-31T04:57:21.541Z,98.80
2019-03-31T05:01:28.544Z,98.90
2019-03-31T05:05:34.067Z,98.90
2019-03-31T05:09:44.914Z,99.00
2019-03-31T05:13:52.905Z,98.90
2019-03-31T05:17:58.911Z,99.30
2019-03-31T05:22:06.087Z,99.30
2019-03-31T05:26:11.534Z,99.20
2019-03-31T05:30:18.857Z,99.30
2019-03-31T05:34:25.015Z,99.10
2019-03-31T05:38:32.121Z,98.90
2019-03-31T05:42:38.446Z,99.10
2019-03-31T05:46:44.084Z,99.20
2019-03-31T05:50:49.633Z,99.00
2019-03-31T05:54:57.904Z,98.50
2019-03-31T05:59:03.398Z,98.50
2019-03-31T06:03:08.959Z,98.60
2019-03-31T06:07:16.430Z,98.60
2019-03-31T06:11:24.838Z,98.30
2019-03-31T06:15:35.020Z,98.60
2019-03-31T06:19:43.282Z,98.60
2019-03-31T06:23:50.441Z,98.30
2019-03-31T06:27:57.502Z,97.90
2019-03-31T06:32:04.956Z,97.80
2019-03-31T06:36:11.739Z,97.40
2019-03-31T06:40:19.512Z,96.90
2019-03-31T06:44:26.335Z,96.40
2019-03-31T06:48:32.433Z,95.10
2019-03-31T06:52:38.887Z,94.50
2019-03-31T06:56:47.069Z,92.80
2019-03-31T07:00:54.112Z,92.10
2019-03-31T07:05:02.021Z,91.50
2019-03-31T07:09:08.107Z,90.10
2019-03-31T07:13:13.653Z,89.70
2019-03-31T07:17:19.226Z,86.20
2019-03-31T07:21:25.077Z,82.70
2019-03-31T07:25:30.797Z,81.80
2019-03-31T07:29:36.230Z,77.70
2019-03-31T07:33:41.887Z,75.00
2019-03-31T07:37:47.963Z,70.50
2019-03-31T07:41:53.435Z,61.20
2019-03-31T07:45:59.100Z,62.80
2019-03-31T07:50:06.117Z,59.00
2019-03-31T07:54:11.627Z,53.10
2019-03-31T07:58:17.099Z,51.30
2019-03-31T08:02:22.647Z,49.90
2019-03-31T08:06:28.353Z,49.10
2019-03-31T08:10:33.786Z,49.50
2019-03-31T08:14:39.562Z,46.40
2019-03-31T08:18:45.071Z,46.20
2019-03-31T08:22:50.618Z,43.40
2019-03-31T08:26:56.446Z,42.80
2019-03-31T08:31:02.036Z,41.60
2019-03-31T08:35:09.112Z,38.20
2019-03-31T08:39:14.593Z,36.00
2019-03-31T08:43:20.136Z,31.90
2019-03-31T08:47:26.724Z,29.10
2019-03-31T08:51:32.233Z,28.60
2019-03-31T08:55:37.713Z,25.70
2019-03-31T08:59:43.300Z,25.80
2019-03-31T09:03:48.731Z,25.80
2019-03-31T09:07:54.393Z,25.90
2019-03-31T09:11:59.956Z,25.20
2019-03-31T09:16:05.393Z,23.40
2019-03-31T09:20:11.603Z,23.20
2019-03-31T09:24:17.002Z,21.90
2019-03-31T09:28:22.508Z,20.20
2019-03-31T09:32:27.992Z,20.50
2019-03-31T09:36:33.488Z,19.10
2019-03-31T09:40:38.952Z,19.50
2019-03-31T09:44:44.457Z,20.30
2019-03-31T09:48:49.889Z,21.30
2019-03-31T09:53:00.431Z,21.10
2019-03-31T09:57:06.257Z,20.50
2019-03-31T10:01:11.801Z,21.00
2019-03-31T10:05:17.942Z,21.50
2019-03-31T10:09:23.591Z,20.30
2019-03-31T10:13:31.165Z,21.40
2019-03-31T10:17:36.591Z,21.40
2019-03-31T10:21:42.158Z,21.60
2019-03-31T10:25:54.395Z,21.40
2019-03-31T10:30:00.005Z,22.00
2019-03-31T10:34:05.689Z,19.20
2019-03-31T10:38:11.209Z,19.80
2019-03-31T10:42:16.921Z,20.40
2019-03-31T10:46:22.354Z,19.40
2019-03-31T10:50:28.050Z,19.30
2019-03-31T10:54:33.497Z,18.80
2019-03-31T10:58:39.074Z,18.30
2019-03-31T11:02:44.633Z,17.90
2019-03-31T11:06:58.812Z,17.50
2019-03-31T11:10:57.533Z,17.20
2019-03-31T11:15:03.069Z,17.70
2019-03-31T11:19:08.572Z,17.00
2019-03-31T11:23:18.903Z,17.20
2019-03-31T11:27:24.318Z,18.30
2019-03-31T11:31:29.778Z,18.10
2019-03-31T11:35:35.370Z,18.00
2019-03-31T11:39:40.966Z,15.90
2019-03-31T11:43:46.459Z,15.10
2019-03-31T11:47:51.996Z,14.60
2019-03-31T11:51:57.471Z,14.10
2019-03-31T11:56:02.914Z,15.20
2019-03-31T12:00:10.771Z,14.60
2019-03-31T12:04:16.181Z,15.30
2019-03-31T12:08:21.645Z,14.10
2019-03-31T12:12:27.253Z,14.30
2019-03-31T12:16:32.701Z,14.10
2019-03-31T12:20:38.260Z,15.00
2019-03-31T12:24:43.691Z,13.30
2019-03-31T12:28:49.490Z,13.90
2019-03-31T12:32:55.240Z,11.30
2019-03-31T12:37:00.709Z,10.90
2019-03-31T12:41:06.384Z,12.10
2019-03-31T12:45:12.367Z,14.20
2019-03-31T12:49:18.067Z,13.20
2019-03-31T12:53:29.891Z,11.30
2019-03-31T12:57:35.919Z,11.80
2019-03-31T13:01:41.658Z,11.40
2019-03-31T13:05:47.077Z,11.00
2019-03-31T13:09:52.784Z,11.60
2019-03-31T13:13:58.376Z,11.00
2019-03-31T13:18:04.281Z,11.30
2019-03-31T13:22:09.915Z,13.10
2019-03-31T13:26:15.372Z,12.80
2019-03-31T13:30:22.091Z,12.70
2019-03-31T13:34:27.736Z,10.60
2019-03-31T13:38:33.169Z,10.40
2019-03-31T13:42:38.984Z,12.10
2019-03-31T13:46:44.637Z,14.30
2019-03-31T13:50:50.050Z,12.20
2019-03-31T13:54:55.606Z,13.00
2019-03-31T13:59:01.050Z,14.50
2019-03-31T14:03:06.744Z,10.60
2019-03-31T14:07:12.490Z,10.80
2019-03-31T14:11:21.464Z,10.70
2019-03-31T14:15:25.591Z,11.00
2019-03-31T14:19:31.499Z,10.70
2019-03-31T14:23:36.910Z,10.80
2019-03-31T14:27:42.546Z,10.80
2019-03-31T14:31:51.735Z,11.60
2019-03-31T14:35:55.554Z,11.30
2019-03-31T14:40:01.136Z,12.90
2019-03-31T14:44:06.760Z,13.00
2019-03-31T14:48:12.212Z,13.00
2019-03-31T14:52:27.245Z,12.00
2019-03-31T14:56:24.821Z,13.10
2019-03-31T15:00:30.377Z,15.00
2019-03-31T15:04:36.214Z,18.80
2019-03-31T15:08:53.843Z,21.10
2019-03-31T15:12:48.771Z,21.30
2019-03-31T15:16:54.278Z,22.40
2019-03-31T15:20:59.726Z,23.40
2019-03-31T15:25:05.420Z,24.60
2019-03-31T15:29:10.993Z,26.60
2019-03-31T15:33:16.877Z,27.40
2019-03-31T15:37:22.345Z,28.50
2019-03-31T15:41:28.023Z,28.90
2019-03-31T15:45:33.463Z,28.60
2019-03-31T15:49:39.102Z,28.90
2019-03-31T15:53:44.586Z,29.90
2019-03-31T15:57:50.513Z,30.70
2019-03-31T16:01:55.992Z,30.30
2019-03-31T16:06:01.503Z,30.60
2019-03-31T16:10:07.943Z,31.60
2019-03-31T16:14:13.064Z,31.10
2019-03-31T16:18:18.470Z,30.90
2019-03-31T16:22:23.990Z,30.90
2019-03-31T16:26:29.550Z,31.90
2019-03-31T16:30:35.924Z,34.00
2019-03-31T16:34:41.304Z,33.00
2019-03-31T16:38:46.847Z,34.30
2019-03-31T16:42:52.204Z,35.80
2019-03-31T16:46:57.409Z,35.60
2019-03-31T16:51:03.205Z,34.80
2019-03-31T16:55:08.530Z,35.30
2019-03-31T16:59:13.766Z,36.40
2019-03-31T17:03:19.125Z,39.20
2019-03-31T17:07:24.356Z,37.40
2019-03-31T17:11:29.732Z,41.10
2019-03-31T17:15:34.599Z,40.20
2019-03-31T17:19:39.545Z,41.30
2019-03-31T17:23:44.649Z,42.40
2019-03-31T17:27:49.517Z,44.20
2019-03-31T17:31:54.545Z,43.90
2019-03-31T17:35:59.490Z,44.70
2019-03-31T17:40:06.520Z,45.90
2019-03-31T17:44:11.641Z,47.00
2019-03-31T17:48:16.725Z,47.30
2019-03-31T17:52:21.590Z,48.50
2019-03-31T17:56:26.729Z,48.90
2019-03-31T18:00:31.619Z,49.20
2019-03-31T18:04:38.348Z,50.00
2019-03-31T18:08:43.023Z,50.90
2019-03-31T18:12:48.078Z,51.00
2019-03-31T18:16:52.982Z,51.60
2019-03-31T18:20:58.032Z,51.60
2019-03-31T18:25:02.918Z,51.80
2019-03-31T18:29:08.314Z,53.30
2019-03-31T18:33:14.266Z,53.30
2019-03-31T18:37:19.197Z,54.60
2019-03-31T18:41:25.155Z,55.20
2019-03-31T18:45:30.799Z,55.90
2019-03-31T18:49:36.437Z,56.40
2019-03-31T18:53:58.176Z,57.50
2019-03-31T18:58:13.002Z,57.20
2019-03-31T19:02:40.704Z,57.70
2019-03-31T19:12:09.990Z,58.80
2019-03-31T19:16:41.914Z,59.50
2019-03-31T19:21:11.777Z,59.40
2019-03-31T19:25:36.555Z,60.60
2019-03-31T19:30:03.343Z,61.00
2019-03-31T19:34:26.008Z,60.60
2019-03-31T19:38:48.838Z,61.90
2019-03-31T19:43:04.178Z,61.10
2019-03-31T19:47:27.613Z,61.20
2019-03-31T19:51:44.355Z,61.30
2019-03-31T19:56:07.684Z,61.40
2019-03-31T20:00:38.669Z,61.90
2019-03-31T20:05:09.199Z,61.30
2019-03-31T20:09:45.315Z,62.40
2019-03-31T20:14:21.201Z,62.40
2019-03-31T20:18:45.725Z,62.40
2019-03-31T20:23:22.627Z,62.50
2019-03-31T20:27:49.355Z,63.30
2019-03-31T20:32:19.101Z,63.80
2019-03-31T20:36:42.993Z,63.60
2019-03-31T20:40:55.560Z,63.70
2019-03-31T20:45:00.532Z,63.80
2019-03-31T20:49:05.535Z,63.70
2019-03-31T20:53:10.498Z,63.80
2019-03-31T20:57:15.423Z,63.60
2019-03-31T21:01:20.435Z,63.80
2019-03-31T21:05:25.290Z,63.40
2019-03-31T21:09:38.767Z,64.10
2019-03-31T21:13:36.857Z,64.00
2019-03-31T21:17:41.984Z,64.50
2019-03-31T21:21:46.882Z,64.90
2019-03-31T21:25:52.079Z,65.30
2019-03-31T21:29:57.030Z,64.60
2019-03-31T21:34:02.030Z,64.60
2019-03-31T21:38:06.960Z,65.50
2019-03-31T21:42:12.869Z,65.00
2019-03-31T21:46:17.921Z,65.40
2019-03-31T21:50:22.911Z,65.70
2019-03-31T21:54:27.983Z,66.80
2019-03-31T21:58:32.990Z,66.10
2019-03-31T22:02:37.934Z,66.30
2019-03-31T22:06:42.931Z,66.30
2019-03-31T22:10:48.061Z,67.10
2019-03-31T22:14:53.351Z,67.10
2019-03-31T22:18:58.334Z,67.50
2019-03-31T22:23:03.306Z,69.00
2019-03-31T22:27:08.221Z,69.10
2019-03-31T22:31:13.217Z,71.10
2019-03-31T22:35:18.162Z,71.10
2019-03-31T22:39:23.038Z,72.30
2019-03-31T22:43:28.087Z,72.00
2019-03-31T22:47:33.028Z,71.80
2019-03-31T22:51:37.939Z,72.30
2019-03-31T22:55:42.963Z,72.80
2019-03-31T22:59:47.958Z,73.50
2019-03-31T23:03:53.030Z,73.30
2019-03-31T23:07:57.945Z,74.30
2019-03-31T23:12:02.963Z,75.20
2019-03-31T23:16:07.927Z,75.30
2019-03-31T23:20:13.071Z,76.30
2019-03-31T23:24:17.964Z,76.40
2019-03-31T23:28:23.154Z,77.50
2019-03-31T23:32:28.060Z,78.30
2019-03-31T23:36:32.987Z,78.90
2019-03-31T23:40:37.838Z,79.10
2019-03-31T23:44:42.731Z,80.70
2019-03-31T23:48:47.652Z,80.60
2019-03-31T23:52:52.586Z,80.60
2019-03-31T23:56:57.466Z,81.50
